Latest METARs, TAFs and NOTAMs for LFPB


---------------------------------------------------------------------------
	(OBSERVATIONS)
LFPB 241330Z AUTO 23011KT 200V270 9999 FEW027 BKN060 24/11 Q1018
    NOSIG=
LFPB 241300Z AUTO 21012KT CAVOK 24/11 Q1018 NOSIG=
LFPB 241230Z AUTO 23013KT 200V260 9999 FEW015 BKN058 24/11 Q1018
    NOSIG=
LFPB 241200Z AUTO 23013KT CAVOK 23/11 Q1018 NOSIG=
LFPB 241130Z AUTO 24011KT 200V270 CAVOK 24/11 Q1018 NOSIG=
LFPB 241100Z AUTO 25009KT 220V300 CAVOK 22/11 Q1018 NOSIG=
---------------------------------------------------------------------------
	(FC)
Sorry, FC For LFPB Not Found
---------------------------------------------------------------------------
	(TERMINAL AREA FORECAST)
LFPB 241100Z 2412/2512 25010KT CAVOK PROB30 TEMPO 2504/2506
    BKN014=
---------------------------------------------------------------------------
	(NOTAMS)


LFPB A1085/17 RESTRICTED USE ON STANDS G1 AND G2 : -AT ARRIVAL
    : PARK PARALL TO OR NOSE FACE TO THE LINE OF WOODEN SHELTERS
    FOR LE BOURGET AIR SHOW. -ON DEPARTURE : COMPULSORY TOWING
    UNTIL THE SAFETY LINE OF STANDS G1 AND G2. 20 MAR 07:00 2017
    UNTIL 31 JUL 22:00 2017. CREATED: 13 MAR 13:52 2017

LFPB A1440/17 STAR MOPIL 6E 6W MODIFIED : AT MOPIL: READ 'FL260
    MAX' INSTEAD OF 'FL260' REF AD 2 LFPB STAR RWY 07 RNAV MATIX
    MOPIL RENSA AD 2 LFPB STAR RWY 25-27 RNAV MATIX MOPIL RENSA.
    27 APR 00:00 2017 UNTIL PERM. CREATED: 04 APR 13:00 2017

LFPB A1570/17 RNAV PROCEDURE GNSS RWY 27 NOT AVBL. 11 APR 15:29
    2017 UNTIL 31 DEC 23:59 2017. CREATED: 11 APR 15:29 2017

LFPB A2299/17 AERIAL SURVEILLANCE OF THE 52ND INTERNATIONAL SHOW
    OF SPACE AND AERONAUTICS OF PARIS LE BOURGET (SIAE) - AIP
    SUP 108/17 : SUBJECT : CREATION OF 15 TEMPORARY RESTRICTED
    AREAS. THIS AIP SUP IS AVBL ON WWW.SIA.AVIATION-CIVILE.GOUV.FR.
    13 JUN 00:00 2017 UNTIL 25 JUN 23:59 2017. CREATED: 25 MAY
    00:00 2017

LFPB A2379/17 TWY C11 CLOSED. 05 JUN 05:00 2017 UNTIL 30 JUN
    15:00 2017. CREATED: 30 MAY 13:45 2017

LFPB A2527/17 TRIGGER NOTAM - PERM AIRAC AIP AMDT 08/17 : RWY
    07 25 27 MATIX MOPIL RENSA STAR PROFILE AND INDICATORS MODIFIED.
    20 JUL 00:00 2017 UNTIL 02 AUG 23:59 2017. CREATED: 08 JUN
    00:02 2017

LFPB A2533/17 BASTILLE DAY CEREMONIES AT PARIS ON JULY 14TH -
    AIP SUP 118/17 : SUBJECT : AD USE RESTRICTIONS, CREATION
    OF A TEMPORARY PROHIBITED AREA AND 3 TEMPORARY RESTRICTED
    AREAS AND SUSPENSION OF SPORTING AND RECREATIONAL ACTIVITIES.
    AIR USERS ARE INVITED TO CONSULT NOTAM REGULARLY IN ORDER
    TO GET INFORMATION REGARDLING POSSIBLE SECURITY STRUCTURE
    CHANGES AND ADDITIONAL PROVISIONS. THIS AIP SUP IS AVBL ON
    WWW.SIA.AVIATION-CIVILE.GOUV.FR. 10-13 1130-1530 14 0600-1130,
    10 JUL 11:30 2017 UNTIL 14 JUL 11:30 2017. CREATED: 08 JUN
    00:05 2017

LFPB A2628/17 TWY W4 CLOSED. 14 JUN 06:00 2017 UNTIL 26 JUN 15:00
    2017. CREATED: 13 JUN 11:56 2017

LFPB A2745/17 HELIPORT PARIS LE BOURGET: PARKING PROHIBITTED.
    1700-0500, 19 JUN 17:00 2017 UNTIL 25 JUN 05:00 2017. CREATED:
    19 JUN 13:24 2017

LFPB A2789/17 T, H5, H4, H3 PARKING AREAS CLOSED. 22 JUN 10:00
    2017 UNTIL 26 JUN 22:00 2017. CREATED: 21 JUN 07:41 2017

LFPB A2790/17 TWY W1 CLOSED SOUTH OF W14 NOT INCLUDED. 22 JUN
    10:00 2017 UNTIL 26 JUN 22:00 2017. CREATED: 21 JUN 07:43
    2017

LFPB A2815/17 TWY W14 RESERVED TO ACFT WITH WINGSPAN 36M MAXIMUM.
    22 JUN 10:00 2017 UNTIL 26 JUN 22:00 2017. CREATED: 21 JUN
    15:58 2017

LFPB A2905/17 AD CLOSED. 24 JUN 11:52 2017 UNTIL 24 JUN 14:31
    2017. CREATED: 23 JUN 16:49 2017

LFPB P0783/17 CRANE OPR RDL 099/0.9NM PARIS LE BOURGET AERODROME:
    PSN: 485802N 0022751E HEIGHT: 82FT ELEV: 270FT LIGHTING:
    DAY. MON-FRI 0600-1500, 06 JUN 06:00 2017 UNTIL 21 JUL 15:00
    2017. CREATED: 31 MAY 09:02 2017

LFPB R0939/17 TRIGGER NOTAM - AIRAC AIP SUP 072/17 : 52ND INTERNATIONAL
    SHOW OF SPACE AND AERONAUTICS OF PARIS LE BOURGET (SIAE)
    REQUIRING THE TEMPORARY CREATION OF 2 RESTRICTED AND 1 DANGER
    AREAS, THE SUSPENSION OF ACTIVITIES AND AERODROMES RESTRICTIONS.
    SFC - FL130, 13 JUN 00:00 2017 UNTIL 25 JUN 23:59 2017. CREATED:
    13 APR 00:06 2017

LFPB R1720/17 52ND INTERNATIONAL SHOW OF SPACE AND AERONAUTICS
    OF PARIS LE BOURGET (SIAE) - AIRAC AIP SUP 072/17 MODIFIED
    : SUBJECT : - TEMPORARY CREATION OF 2 RESTRICTED AND 1 DANGER
    AREAS. - SUSPENSION OF ACTIVITIES, - RESTRICTIONS ON AERODROMES.
    AIR USERS ARE INVITED TO CONSULT NOTAM DAILY TO CHECK ANY
    MODIFICATION OF THE DEVICE AND ALSO ANY ADDITIONAL INFORMATION
    (PHONE NUMBERS, TIME SLOTS OF ACTIVITY...). THIS AIP SUP
    IS AVBL ON WWW.SIA.AVIATION-CIVILE.GOUV.FR. ----------------------------
    ADDITIONNAL INFORMATION : - CHAPTER 4.2.1 ' ESTABLISHMENT
    OF A TEMPO HELIPORT AT LFPB : ADD : COMPULSORY ASSISTANCE
    TO USE THE HELIPORT : WFS : TEL +33 1 41 69 01 97 MAIL :
    LBG.OPS(A)WFS.AERO OU VJEGU(A)WFS.AERO - CHAPTER 1.1 - ZIT
    ROUGE MODIFIED AS FLW : . STATUS : READ : WHEN ACTIVE, THE
    ZIT ROUGE COEXISTS WITH OVERLAPPING CONTROLLED AIRSPACE PARTS
    AND REPLACES OVERLAPPING PARTS OF RESTRICTED AREAS. END PART
    1 OF 2. 16 JUN 16:30 2017 UNTIL 25 JUN 23:59 2017. CREATED:
    16 JUN 16:36 2017

LFPB R1720/17 . SERVICES PROVIDED : READ : WITHIN THIS AREA,
    THE AIR TFC SERVICES KEEP ON PROVIDING TO AUTHORIZED USERS
    THE SAME SERVICES AS IN CLASS D AIRSPACE. - THE AREAS 'ZIT
    ROUGE' AND 'ZRT BLEUE' WILL NOT BE ACTIVATED ON JUN, 17TH
    AND 18TH, 2017. SFC - FL130 END PART 2 OF 2, 16 JUN 16:30
    2017 UNTIL 25 JUN 23:59 2017. CREATED: 16 JUN 16:36 2017

LFPB R1727/17 52ND INTERNATIONAL SHOW OF SPACE AND AERONAUTICS
    OF PARIS LE BOURGET (SIAE) - AIRAC AIP SUP 072/17 MODIFIED
    : CONTACT TO ENTRY WITHIN ZRT CREATED IN AIP SUP AIRAC 072/17
    CONCERNING 52ND INTERNATIONAL SHOW OF SPACE AND AERONAUTICS
    OF PARIS LE BOURGET (SIAE) .C2A2 (CELLULE DE COORDINATION
    DE L'ACTIVITE AERIENNE) : 33(0)1 41 44 59 53 - 33(0)1 41
    44 59 08 OU CC2A2.BOURGET(A)GMAIL.COM .CONNECTION TO FRENCH
    AIR FORCE : BOURGET (LFPB) 0033(0)6 33 07 43 67 CHAVENAY
    (LFPX) 0033(0)6 70 68 41 37 LE PLESSIS (LFPP) 0033(0)6 64
    48 97 73 ISSY LES MOULINEAUX 0033(0)6 64 49 18 05 LOGNES
    (LFPL) 0033(0)6 64 48 37 94 MEAUX (LFPE) 0033(0)6 64 42 56
    61 MELUN VILLAROCHE (LFPM) 0033(0)6 64 09 55 54 ORLY (LFPO)
    0033(0)6 64 48 56 67 PERSANT-BEAUMONT (LFPA) 0033(0)6 64
    48 08 39 PONTOISE (LFPT) 0033(0)6 64 48 98 26 ROISSY (LFPG)
    0033(0)6 68 08 53 10 SAINT CYR (LFPZ) 0033(0)6 64 49 03 89
    TOUSSUS (LFPN) 0033(0)6 64 49 15 09. SFC - FL130, 20 JUN
    06:51 2017 UNTIL 25 JUN 23:59 2017. CREATED: 20 JUN 06:51
    2017

LFPB V0653/17 [US DOD PROCEDURAL NOTAM] STANDARD INSTRUMENT DEPARTURE
    (SID) NOT AUTHORIZED SID RNAV (GNSS-DME/DME) RWY 21, 25 (BAXIR
    1C-1F-1P, BUBLI 1C-1F-1P, DIKOL 1C-1F-1P, LANVI 1C-1F-1P,
    RANUX 1C-1F-1P) NOT AUTHORIZED. 26 MAY 16:33 2017 UNTIL 19
    JUL 23:59 2017. CREATED: 26 MAY 16:33 2017

LFPB V0658/17 [US DOD PROCEDURAL NOTAM] STANDARD INSTRUMENT DEPARTURE
    (SID) NOT AUTHORIZED SID RWY 07, 09, 21 (DORDI 1J-1M, PTV
    1J-1M) NOT AUTHORIZED. 26 MAY 16:50 2017 UNTIL 20 JUL 23:59
    2017. CREATED: 26 MAY 16:50 2017

LFPB V0732/17 [US DOD PROCEDURAL NOTAM] INSTRUMENT APPROACH PROCEDURE
    CHANGED RNAV (GNSS) RWY 25 STRAIGHT-IN NOT AUTHORIZED. CIRCLING
    MINIMA CAT AB: 920-1900M 702(800-1900M), CAT C: 1320-4800M
    1102(1200-4800M), CAT D: 1320-4900M 1102(1200-4900M). 21
    JUN 23:59 2017 UNTIL 20 JUL 00:01 2017. CREATED: 21 JUN 12:09
    2017

---------------------------------------------------------------------------